createdAt,value
2019-03-08T00:02:13.142Z,98184.25
2019-03-08T00:04:43.327Z,98183.78
2019-03-08T00:07:13.329Z,98188.63
2019-03-08T00:09:44.477Z,98190.78
2019-03-08T00:12:14.730Z,98201.45
2019-03-08T00:14:44.594Z,98201.45
2019-03-08T00:17:13.524Z,98212.66
2019-03-08T00:19:43.136Z,98214.95
2019-03-08T00:22:12.681Z,98214.95
2019-03-08T00:24:41.521Z,98222.83
2019-03-08T00:27:11.143Z,98222.40
2019-03-08T00:29:41.101Z,98222.40
2019-03-08T00:32:10.922Z,98228.38
2019-03-08T00:34:40.848Z,98228.59
2019-03-08T00:37:10.321Z,98225.86
2019-03-08T00:39:39.454Z,98223.66
2019-03-08T00:42:09.019Z,98231.75
2019-03-08T00:44:38.562Z,98232.06
2019-03-08T00:47:08.536Z,98225.30
2019-03-08T00:49:38.136Z,98231.74
2019-03-08T00:52:07.651Z,98231.74
2019-03-08T00:54:36.493Z,98223.13
2019-03-08T00:57:06.431Z,98233.17
2019-03-08T00:59:35.783Z,98233.17
2019-03-08T01:02:05.701Z,98233.37
2019-03-08T01:04:35.792Z,98235.58
2019-03-08T01:07:05.542Z,98234.72
2019-03-08T01:09:34.269Z,98236.45
2019-03-08T01:12:04.037Z,98242.20
2019-03-08T01:14:33.845Z,98235.94
2019-03-08T01:17:04.595Z,98237.53
2019-03-08T01:19:33.712Z,98241.64
2019-03-08T01:22:02.289Z,98241.64
2019-03-08T01:24:31.890Z,98237.09
2019-03-08T01:27:01.647Z,98241.68
2019-03-08T01:29:31.332Z,98239.20
2019-03-08T01:32:00.963Z,98239.20
2019-03-08T01:34:30.873Z,98232.95
2019-03-08T01:37:03.456Z,98234.86
2019-03-08T01:39:33.042Z,98233.23
2019-03-08T01:42:02.683Z,98234.78
2019-03-08T01:44:33.874Z,98239.09
2019-03-08T01:47:04.145Z,98242.56
2019-03-08T01:49:33.853Z,98250.09
2019-03-08T01:52:04.068Z,98249.31
2019-03-08T01:54:33.788Z,98253.16
2019-03-08T01:57:03.067Z,98251.17
2019-03-08T01:59:32.595Z,98256.27
2019-03-08T02:02:02.560Z,98258.41
2019-03-08T02:04:31.991Z,98261.81
2019-03-08T02:07:01.764Z,98271.09
2019-03-08T02:09:31.585Z,98275.90
2019-03-08T02:12:00.418Z,98269.02
2019-03-08T02:14:29.780Z,98275.21
2019-03-08T02:17:02.843Z,98270.14
2019-03-08T02:19:32.605Z,98280.19
2019-03-08T02:22:01.347Z,98282.27
2019-03-08T02:24:30.901Z,98280.66
2019-03-08T02:27:00.657Z,98283.31
2019-03-08T02:29:32.336Z,98290.54
2019-03-08T02:32:02.472Z,98291.20
2019-03-08T02:34:32.368Z,98292.12
2019-03-08T02:37:01.831Z,98292.12
2019-03-08T02:39:31.323Z,98290.09
2019-03-08T02:42:02.032Z,98286.55
2019-03-08T02:44:31.536Z,98287.39
2019-03-08T02:47:01.056Z,98287.66
2019-03-08T02:49:30.988Z,98287.66
2019-03-08T02:52:00.822Z,98284.10
2019-03-08T02:54:30.167Z,98282.82
2019-03-08T02:56:59.858Z,98275.95
2019-03-08T02:59:29.541Z,98283.08
2019-03-08T03:01:58.847Z,98285.98
2019-03-08T03:04:28.639Z,98288.30
2019-03-08T03:07:00.541Z,98288.86
2019-03-08T03:09:30.044Z,98288.66
2019-03-08T03:11:59.603Z,98288.66
2019-03-08T03:14:29.119Z,98301.08
2019-03-08T03:16:58.614Z,98301.08
2019-03-08T03:19:28.830Z,98297.83
2019-03-08T03:21:58.320Z,98297.83
2019-03-08T03:24:27.844Z,98305.75
2019-03-08T03:26:57.483Z,98317.70
2019-03-08T03:29:27.322Z,98315.95
2019-03-08T03:31:56.658Z,98308.64
2019-03-08T03:34:27.464Z,98310.83
2019-03-08T03:36:57.608Z,98309.80
2019-03-08T03:39:26.546Z,98309.80
2019-03-08T03:41:56.542Z,98320.87
2019-03-08T03:44:27.075Z,98328.46
2019-03-08T03:46:57.139Z,98328.46
2019-03-08T03:49:26.896Z,98334.70
2019-03-08T03:51:57.812Z,98338.18
2019-03-08T03:54:27.549Z,98333.58
2019-03-08T03:56:56.667Z,98335.05
2019-03-08T03:59:25.660Z,98333.11
2019-03-08T04:01:54.503Z,98341.82
2019-03-08T04:04:24.366Z,98348.23
2019-03-08T04:06:54.419Z,98348.69
2019-03-08T04:09:24.320Z,98348.69
2019-03-08T04:11:53.962Z,98345.47
2019-03-08T04:14:23.824Z,98354.07
2019-03-08T04:16:53.519Z,98362.27
2019-03-08T04:19:22.838Z,98364.28
2019-03-08T04:21:52.117Z,98371.95
2019-03-08T04:24:22.051Z,98369.53
2019-03-08T04:26:51.846Z,98375.66
2019-03-08T04:29:21.313Z,98379.59
2019-03-08T04:31:51.029Z,98383.48
2019-03-08T04:34:20.523Z,98383.34
2019-03-08T04:36:50.138Z,98404.34
2019-03-08T04:39:19.657Z,98405.21
2019-03-08T04:41:49.316Z,98415.92
2019-03-08T04:44:18.836Z,98415.67
2019-03-08T04:46:48.314Z,98448.20
2019-03-08T04:49:17.655Z,98446.13
2019-03-08T04:51:46.428Z,98444.65
2019-03-08T04:54:15.799Z,98449.06
2019-03-08T04:56:45.167Z,98454.14
2019-03-08T04:59:14.969Z,98459.80
2019-03-08T05:01:44.596Z,98471.44
2019-03-08T05:04:14.421Z,98478.78
2019-03-08T05:06:43.850Z,98478.78
2019-03-08T05:09:14.140Z,98486.63
2019-03-08T05:11:43.760Z,98472.97
2019-03-08T05:14:13.529Z,98470.39
2019-03-08T05:16:43.020Z,98447.94
2019-03-08T05:19:12.787Z,98447.94
2019-03-08T05:21:42.343Z,98454.58
2019-03-08T05:24:11.839Z,98461.80
2019-03-08T05:26:41.494Z,98468.37
2019-03-08T05:29:10.874Z,98465.41
2019-03-08T05:31:40.552Z,98461.73
2019-03-08T05:34:10.317Z,98467.47
2019-03-08T05:36:40.312Z,98470.82
2019-03-08T05:39:13.809Z,98470.82
2019-03-08T05:41:43.548Z,98478.61
2019-03-08T05:44:16.101Z,98476.92
2019-03-08T05:46:45.646Z,98476.92
2019-03-08T05:49:15.321Z,98482.84
2019-03-08T05:51:45.328Z,98473.41
2019-03-08T05:54:15.025Z,98473.41
2019-03-08T05:56:44.721Z,98496.67
2019-03-08T05:59:13.645Z,98500.31
2019-03-08T06:01:42.561Z,98497.17
2019-03-08T06:04:11.278Z,98497.17
2019-03-08T06:06:40.907Z,98512.50
2019-03-08T06:09:10.310Z,98519.07
2019-03-08T06:11:40.166Z,98520.57
2019-03-08T06:14:09.643Z,98520.57
2019-03-08T06:16:38.519Z,98524.15
2019-03-08T06:19:08.227Z,98533.27
2019-03-08T06:21:37.799Z,98532.75
2019-03-08T06:24:08.697Z,98536.25
2019-03-08T06:26:38.790Z,98533.84
2019-03-08T06:29:08.115Z,98537.85
2019-03-08T06:31:38.152Z,98539.59
2019-03-08T06:34:07.635Z,98552.33
2019-03-08T06:36:37.497Z,98543.06
2019-03-08T06:39:08.105Z,98553.20
2019-03-08T06:41:37.801Z,98553.20
2019-03-08T06:44:07.451Z,98567.38
2019-03-08T06:46:40.763Z,98563.53
2019-03-08T06:49:11.214Z,98574.41
2019-03-08T06:51:41.030Z,98579.27
2019-03-08T06:54:11.048Z,98584.08
2019-03-08T06:56:40.857Z,98587.53
2019-03-08T06:59:22.149Z,98589.81
2019-03-08T07:01:52.107Z,98595.36
2019-03-08T07:04:21.666Z,98597.45
2019-03-08T07:06:51.457Z,98607.98
2019-03-08T07:09:21.071Z,98595.92
2019-03-08T07:11:50.859Z,98595.92
2019-03-08T07:14:20.545Z,98599.56
2019-03-08T07:16:50.035Z,98607.14
2019-03-08T07:19:19.806Z,98607.14
2019-03-08T07:22:15.335Z,98613.87
2019-03-08T07:25:03.191Z,98617.15
2019-03-08T07:28:04.757Z,98620.91
2019-03-08T07:31:09.106Z,98629.98
2019-03-08T07:33:58.455Z,98628.96
2019-03-08T07:36:46.388Z,98646.43
2019-03-08T07:39:36.540Z,98640.56
2019-03-08T07:42:35.807Z,98640.56
2019-03-08T07:45:32.503Z,98662.27
2019-03-08T07:48:30.981Z,98669.86
2019-03-08T07:51:19.085Z,98683.50
2019-03-08T07:54:17.303Z,98675.66
2019-03-08T07:57:05.302Z,98682.98
2019-03-08T08:00:06.702Z,98686.08
2019-03-08T08:02:52.539Z,98690.37
2019-03-08T08:05:47.687Z,98702.66
2019-03-08T08:08:36.806Z,98702.66
2019-03-08T08:11:29.113Z,98703.16
2019-03-08T08:14:05.646Z,98713.48
2019-03-08T08:16:46.461Z,98726.20
2019-03-08T08:19:51.552Z,98730.67
2019-03-08T08:22:39.503Z,98738.80
2019-03-08T08:25:16.264Z,98739.16
2019-03-08T08:28:04.481Z,98744.88
2019-03-08T08:30:53.825Z,98749.97
2019-03-08T08:33:40.960Z,98749.97
2019-03-08T08:36:24.517Z,98758.98
2019-03-08T08:39:11.998Z,98762.48
2019-03-08T08:41:48.310Z,98762.48
2019-03-08T08:44:43.060Z,98764.86
2019-03-08T08:47:31.039Z,98771.66
2019-03-08T08:50:19.313Z,98770.92
2019-03-08T08:53:17.845Z,98771.89
2019-03-08T08:56:07.552Z,98779.82
2019-03-08T08:58:56.121Z,98791.82
2019-03-08T09:01:34.310Z,98792.09
2019-03-08T09:04:23.515Z,98795.91
2019-03-08T09:07:15.667Z,98799.73
2019-03-08T09:10:00.908Z,98799.73
2019-03-08T09:12:38.023Z,98793.20
2019-03-08T09:15:32.316Z,98799.67
2019-03-08T09:18:21.515Z,98795.50
2019-03-08T09:21:20.300Z,98799.86
2019-03-08T09:24:00.417Z,98803.47
2019-03-08T09:26:52.794Z,98792.84
2019-03-08T09:29:41.741Z,98792.84
2019-03-08T09:32:24.415Z,98801.70
2019-03-08T09:35:17.838Z,98802.34
2019-03-08T09:37:55.890Z,98802.34
2019-03-08T09:40:38.297Z,98810.91
2019-03-08T09:43:39.699Z,98818.25
2019-03-08T09:46:44.708Z,98811.31
2019-03-08T09:49:26.000Z,98818.47
2019-03-08T09:52:12.058Z,98822.08
2019-03-08T09:54:53.069Z,98812.58
2019-03-08T09:57:38.131Z,98815.84
2019-03-08T10:00:41.320Z,98819.85
2019-03-08T10:03:30.595Z,98822.05
2019-03-08T10:06:08.130Z,98825.92
2019-03-08T10:08:52.698Z,98838.58
2019-03-08T10:11:37.660Z,98841.35
2019-03-08T10:14:25.367Z,98841.20
2019-03-08T10:17:20.544Z,98853.83
2019-03-08T10:20:11.949Z,98849.58
2019-03-08T10:23:03.682Z,98854.09
2019-03-08T10:25:52.708Z,98854.09
2019-03-08T10:28:40.825Z,98855.02
2019-03-08T10:31:20.554Z,98852.83
2019-03-08T10:34:12.717Z,98855.47
2019-03-08T10:37:00.722Z,98855.47
2019-03-08T10:39:47.852Z,98859.53
2019-03-08T10:42:35.366Z,98865.00
2019-03-08T10:45:23.816Z,98873.20
2019-03-08T10:50:05.829Z,98862.30
2019-03-08T10:52:42.315Z,98862.30
2019-03-08T10:55:31.573Z,98882.33
2019-03-08T10:58:10.496Z,98873.84
2019-03-08T11:01:01.317Z,98881.70
2019-03-08T11:03:56.790Z,98881.70
2019-03-08T11:06:45.620Z,98886.52
2019-03-08T11:09:31.276Z,98882.11
2019-03-08T11:12:26.452Z,98894.75
2019-03-08T11:15:24.356Z,98888.71
2019-03-08T11:18:09.862Z,98888.71
2019-03-08T11:21:09.996Z,98896.78
2019-03-08T11:23:58.045Z,98902.50
2019-03-08T11:26:37.469Z,98911.75
2019-03-08T11:29:17.371Z,98908.96
2019-03-08T11:32:05.889Z,98908.96
2019-03-08T11:35:08.154Z,98924.52
2019-03-08T11:37:45.308Z,98911.73
2019-03-08T11:40:35.004Z,98910.08
2019-03-08T11:43:24.463Z,98918.47
2019-03-08T11:46:12.314Z,98906.42
2019-03-08T11:49:00.172Z,98906.42
2019-03-08T11:51:53.592Z,98903.84
2019-03-08T11:54:42.526Z,98909.41
2019-03-08T11:57:34.715Z,98900.99
2019-03-08T12:00:29.999Z,98900.99
2019-03-08T12:03:13.873Z,98900.06
2019-03-08T12:06:05.157Z,98905.17
2019-03-08T12:09:06.487Z,98898.35
2019-03-08T12:12:11.542Z,98896.31
2019-03-08T12:15:00.712Z,98905.23
2019-03-08T12:17:41.519Z,98905.23
2019-03-08T12:20:20.026Z,98887.09
2019-03-08T12:23:14.662Z,98887.09
2019-03-08T12:25:53.559Z,98903.33
2019-03-08T12:28:51.030Z,98911.44
2019-03-08T12:31:40.573Z,98909.79
2019-03-08T12:34:44.670Z,98905.91
2019-03-08T12:37:25.054Z,98908.41
2019-03-08T12:40:09.994Z,98906.58
2019-03-08T12:43:07.568Z,98907.20
2019-03-08T12:45:59.282Z,98889.80
2019-03-08T12:49:00.619Z,98898.23
2019-03-08T12:51:57.871Z,98907.56
2019-03-08T12:54:45.875Z,98902.98
2019-03-08T12:57:42.605Z,98895.02
2019-03-08T13:00:33.327Z,98902.63
2019-03-08T13:03:28.772Z,98910.14
2019-03-08T13:06:19.284Z,98910.14
2019-03-08T13:09:08.839Z,98902.78
2019-03-08T13:11:39.309Z,98901.42
2019-03-08T13:14:10.649Z,98917.08
2019-03-08T13:16:40.336Z,98910.35
2019-03-08T13:19:11.333Z,98919.59
2019-03-08T13:21:41.656Z,98921.28
2019-03-08T13:24:12.154Z,98924.33
2019-03-08T13:26:41.850Z,98926.27
2019-03-08T13:29:12.200Z,98930.59
2019-03-08T13:31:42.128Z,98920.48
2019-03-08T13:34:12.130Z,98921.91
2019-03-08T13:36:41.600Z,98923.67
2019-03-08T13:39:10.736Z,98919.92
2019-03-08T13:41:45.574Z,98914.98
2019-03-08T13:44:18.567Z,98919.72
2019-03-08T13:46:49.492Z,98933.97
2019-03-08T13:49:20.045Z,98933.97
2019-03-08T13:51:50.509Z,98935.88
2019-03-08T13:54:25.563Z,98938.09
2019-03-08T13:56:54.085Z,98938.09
2019-03-08T13:59:23.701Z,98935.08
2019-03-08T14:01:54.961Z,98938.20
2019-03-08T14:04:25.700Z,98943.30
2019-03-08T14:06:56.469Z,98951.47
2019-03-08T14:09:26.593Z,98955.56
2019-03-08T14:11:55.541Z,98955.56
2019-03-08T14:14:25.441Z,98944.92
2019-03-08T14:16:55.177Z,98944.92
2019-03-08T14:19:24.990Z,98940.93
2019-03-08T14:21:54.408Z,98948.68
2019-03-08T14:24:25.050Z,98947.73
2019-03-08T14:26:54.617Z,98952.36
2019-03-08T14:29:23.685Z,98943.58
2019-03-08T14:32:02.557Z,98947.61
2019-03-08T14:34:31.485Z,98951.34
2019-03-08T14:37:01.457Z,98970.05
2019-03-08T14:39:31.784Z,98970.05
2019-03-08T14:42:20.860Z,98983.88
2019-03-08T14:44:55.050Z,98979.08
2019-03-08T14:47:34.382Z,98981.36
2019-03-08T14:50:06.636Z,98985.33
2019-03-08T14:52:36.858Z,98968.66
2019-03-08T14:55:13.617Z,98982.23
2019-03-08T14:57:42.693Z,98982.84
2019-03-08T15:00:20.040Z,98983.72
2019-03-08T15:02:52.862Z,98978.31
2019-03-08T15:05:28.072Z,98972.02
2019-03-08T15:07:58.320Z,98973.27
2019-03-08T15:10:38.793Z,98967.89
2019-03-08T15:13:01.132Z,98968.59
2019-03-08T15:15:31.166Z,98971.21
2019-03-08T15:18:01.325Z,98957.57
2019-03-08T15:20:32.001Z,98969.88
2019-03-08T15:23:01.841Z,98961.45
2019-03-08T15:25:31.903Z,98957.37
2019-03-08T15:28:01.896Z,98956.25
2019-03-08T15:30:31.898Z,98958.73
2019-03-08T15:33:01.646Z,98949.37
2019-03-08T15:35:30.806Z,98946.66
2019-03-08T15:38:00.651Z,98958.99
2019-03-08T15:43:04.866Z,98954.27
2019-03-08T15:45:34.809Z,98946.91
2019-03-08T15:48:04.621Z,98949.89
2019-03-08T15:50:34.221Z,98948.56
2019-03-08T15:53:04.308Z,98951.80
2019-03-08T15:55:34.052Z,98959.63
2019-03-08T15:58:04.307Z,98949.61
2019-03-08T16:00:34.828Z,98951.41
2019-03-08T16:03:04.561Z,98951.91
2019-03-08T16:05:33.795Z,98948.09
2019-03-08T16:08:04.022Z,98953.16
2019-03-08T16:10:34.265Z,98945.88
2019-03-08T16:13:04.428Z,98957.25
2019-03-08T16:15:35.957Z,98962.20
2019-03-08T16:18:06.806Z,98962.20
2019-03-08T16:20:38.644Z,98957.93
2019-03-08T16:23:08.662Z,98950.23
2019-03-08T16:25:41.162Z,98955.23
2019-03-08T16:28:10.898Z,98959.64
2019-03-08T16:30:43.902Z,98959.64
2019-03-08T16:33:36.331Z,98960.53
2019-03-08T16:36:29.014Z,98952.88
2019-03-08T16:39:06.717Z,98958.95
2019-03-08T16:41:58.598Z,98966.50
2019-03-08T16:44:54.484Z,98966.50
2019-03-08T16:47:42.562Z,98976.80
2019-03-08T16:50:27.219Z,98979.06
2019-03-08T16:53:13.687Z,98977.33
2019-03-08T16:55:53.148Z,98991.13
2019-03-08T16:58:41.519Z,98986.44
2019-03-08T17:01:19.127Z,99000.53
2019-03-08T17:04:16.574Z,99000.53
2019-03-08T17:07:07.719Z,98993.39
2019-03-08T17:10:12.321Z,98998.77
2019-03-08T17:13:20.823Z,99000.82
2019-03-08T17:16:02.049Z,99003.52
2019-03-08T17:18:49.306Z,99011.96
2019-03-08T17:21:38.525Z,99018.33
2019-03-08T17:24:26.799Z,99023.80
2019-03-08T17:27:17.819Z,99032.77
2019-03-08T17:30:07.111Z,99033.27
2019-03-08T17:32:57.515Z,99028.62
2019-03-08T17:35:46.591Z,99028.62
2019-03-08T17:38:26.629Z,99030.20
2019-03-08T17:41:05.657Z,99040.46
2019-03-08T17:43:52.946Z,99040.46
2019-03-08T17:46:42.515Z,99041.84
2019-03-08T17:49:32.560Z,99043.22
2019-03-08T17:52:17.074Z,99043.22
2019-03-08T17:55:15.463Z,99052.96
2019-03-08T17:58:04.782Z,99045.56
2019-03-08T18:00:52.951Z,99045.56
2019-03-08T18:03:48.145Z,99052.30
2019-03-08T18:06:40.904Z,99056.03
2019-03-08T18:09:25.666Z,99065.67
2019-03-08T18:12:19.873Z,99071.18
2019-03-08T18:15:15.307Z,99066.69
2019-03-08T18:17:56.564Z,99071.28
2019-03-08T18:20:40.677Z,99074.28
2019-03-08T18:23:39.109Z,99066.20
2019-03-08T18:26:20.477Z,99065.47
2019-03-08T18:29:11.674Z,99066.77
2019-03-08T18:32:01.342Z,99073.43
2019-03-08T18:34:46.329Z,99072.53
2019-03-08T18:37:36.153Z,99072.53
2019-03-08T18:40:36.581Z,99079.32
2019-03-08T18:43:23.304Z,99084.38
2019-03-08T18:46:05.118Z,99090.69
2019-03-08T18:49:12.660Z,99089.91
2019-03-08T18:51:54.461Z,99093.38
2019-03-08T18:54:33.513Z,99102.01
2019-03-08T18:57:27.940Z,99102.01
2019-03-08T19:00:32.397Z,99106.50
2019-03-08T19:03:27.178Z,99116.11
2019-03-08T19:06:26.663Z,99119.12
2019-03-08T19:09:18.923Z,99123.54
2019-03-08T19:12:23.733Z,99129.47
2019-03-08T19:15:22.148Z,99128.97
2019-03-08T19:18:11.648Z,99127.77
2019-03-08T19:21:04.834Z,99118.56
2019-03-08T19:23:55.586Z,99125.19
2019-03-08T19:26:59.602Z,99119.20
2019-03-08T19:29:46.657Z,99113.29
2019-03-08T19:32:32.269Z,99111.14
2019-03-08T19:35:27.668Z,99110.55
2019-03-08T19:38:15.316Z,99108.16
2019-03-08T19:41:06.815Z,99122.01
2019-03-08T19:43:47.143Z,99122.01
2019-03-08T19:46:35.617Z,99115.25
2019-03-08T19:49:25.134Z,99117.84
2019-03-08T19:52:13.537Z,99123.48
2019-03-08T19:55:01.135Z,99114.15
2019-03-08T19:57:39.563Z,99120.02
2019-03-08T20:00:31.572Z,99126.95
2019-03-08T20:03:23.118Z,99126.95
2019-03-08T20:05:59.098Z,99117.20
2019-03-08T20:08:46.833Z,99132.52
2019-03-08T20:11:32.608Z,99139.44
2019-03-08T20:14:27.822Z,99139.91
2019-03-08T20:17:21.357Z,99143.30
2019-03-08T20:20:09.394Z,99152.69
2019-03-08T20:23:05.273Z,99146.87
2019-03-08T20:26:10.319Z,99146.87
2019-03-08T20:28:58.664Z,99143.20
2019-03-08T20:31:52.742Z,99147.16
2019-03-08T20:34:38.515Z,99138.97
2019-03-08T20:37:26.894Z,99138.19
2019-03-08T20:40:13.099Z,99138.19
2019-03-08T20:43:01.508Z,99147.43
2019-03-08T20:45:47.786Z,99152.33
2019-03-08T20:48:18.127Z,99148.03
2019-03-08T20:50:48.669Z,99153.70
2019-03-08T20:53:19.919Z,99153.19
2019-03-08T20:55:50.075Z,99151.52
2019-03-08T20:58:20.141Z,99153.77
2019-03-08T21:00:50.700Z,99156.63
2019-03-08T21:03:21.148Z,99154.73
2019-03-08T21:05:52.318Z,99154.64
2019-03-08T21:08:22.352Z,99154.61
2019-03-08T21:10:52.678Z,99148.99
2019-03-08T21:13:23.774Z,99154.48
2019-03-08T21:15:54.130Z,99145.58
2019-03-08T21:18:24.145Z,99148.41
2019-03-08T21:20:54.622Z,99147.52
2019-03-08T21:23:24.967Z,99149.31
2019-03-08T21:25:54.954Z,99148.66
2019-03-08T21:28:25.318Z,99145.28
2019-03-08T21:30:55.032Z,99140.73
2019-03-08T21:33:25.492Z,99140.82
2019-03-08T21:35:56.573Z,99142.88
2019-03-08T21:38:26.858Z,99139.61
2019-03-08T21:40:57.132Z,99140.54
2019-03-08T21:43:27.194Z,99138.09
2019-03-08T21:45:56.913Z,99147.12
2019-03-08T21:48:26.930Z,99145.00
2019-03-08T21:50:56.749Z,99141.77
2019-03-08T21:53:27.187Z,99143.16
2019-03-08T21:55:58.909Z,99135.42
2019-03-08T21:58:28.982Z,99132.52
2019-03-08T22:00:59.952Z,99139.14
2019-03-08T22:03:30.209Z,99132.23
2019-03-08T22:06:00.517Z,99131.46
2019-03-08T22:08:30.984Z,99125.10
2019-03-08T22:11:19.555Z,99134.77
2019-03-08T22:13:48.988Z,99125.41
2019-03-08T22:16:18.961Z,99119.48
2019-03-08T22:18:50.141Z,99119.94
2019-03-08T22:21:20.566Z,99114.27
2019-03-08T22:23:52.530Z,99108.20
2019-03-08T22:26:23.107Z,99100.98
2019-03-08T22:28:53.313Z,99100.98
2019-03-08T22:31:23.117Z,99105.16
2019-03-08T22:33:53.309Z,99099.63
2019-03-08T22:36:23.606Z,99100.44
2019-03-08T22:38:52.679Z,99100.44
2019-03-08T22:41:21.748Z,99095.13
2019-03-08T22:43:50.489Z,99097.29
2019-03-08T22:46:20.585Z,99087.63
2019-03-08T22:48:49.697Z,99087.63
2019-03-08T22:51:19.936Z,99098.27
2019-03-08T22:53:49.910Z,99096.73
2019-03-08T22:56:20.065Z,99098.98
2019-03-08T22:58:50.108Z,99094.04
2019-03-08T23:01:22.316Z,99089.94
2019-03-08T23:03:54.723Z,99088.52
2019-03-08T23:06:25.158Z,99077.97
2019-03-08T23:08:55.053Z,99075.01
2019-03-08T23:11:24.869Z,99074.95
2019-03-08T23:13:54.608Z,99066.38
2019-03-08T23:16:24.877Z,99060.97
2019-03-08T23:18:54.647Z,99056.69
2019-03-08T23:21:24.533Z,99060.69
2019-03-08T23:23:54.512Z,99040.39
2019-03-08T23:26:23.565Z,99040.39
2019-03-08T23:29:07.931Z,99046.43
2019-03-08T23:31:42.319Z,99050.06
2019-03-08T23:34:13.146Z,99041.43
2019-03-08T23:36:42.892Z,99046.38
2019-03-08T23:39:12.875Z,99046.11
2019-03-08T23:41:43.179Z,99037.77
2019-03-08T23:44:13.020Z,99040.52
2019-03-08T23:46:42.593Z,99035.94
2019-03-08T23:49:12.519Z,99048.58
2019-03-08T23:51:41.989Z,99055.11
2019-03-08T23:54:11.830Z,99055.11
2019-03-08T23:56:41.709Z,99056.36
2019-03-08T23:59:11.985Z,99052.47
